Time;durP1;ratioP1;P1;durP2;ratioP2;P2;SDS_P1;SDS_P2;PMS_P1;PMS_P2;Temp;Humidity;BMP_temperature;BMP_pressure;BME280_temperature;BME280_humidity;BME280_pressure;Samples;Min_cycle;Max_cycle;Signal;HPM_P1;HPM_P2
2022/01/28 00:00:16;;;;;;;7.38;1.67;;;18.50;61.90;;;;;;6233116;22;20181;-82
2022/01/28 00:05:28;;;;;;;3.85;1.58;;;18.50;61.80;;;;;;6243144;22;20186;-82
2022/01/28 00:07:54;;;;;;;4.07;1.20;;;18.50;61.80;;;;;;6255433;22;20209;-83
2022/01/28 00:10:22;;;;;;;5.60;1.75;;;18.50;62.00;;;;;;6230313;22;20197;-82
2022/01/28 00:13:15;;;;;;;5.88;1.50;;;18.40;62.10;;;;;;6256216;22;20144;-82
2022/01/28 00:15:40;;;;;;;4.80;1.50;;;18.40;62.20;;;;;;6263626;22;20155;-82
2022/01/28 00:18:32;;;;;;;3.25;1.27;;;18.40;62.40;;;;;;6282448;22;20124;-82
2022/01/28 00:37:11;;;;;;;5.72;1.20;;;18.40;61.90;;;;;;6283815;22;20340;-82
2022/01/28 00:39:36;;;;;;;4.40;1.30;;;18.40;62.00;;;;;;6262212;22;20128;-82
2022/01/28 00:42:03;;;;;;;4.60;1.15;;;18.40;62.00;;;;;;6280612;22;20144;-82
2022/01/28 00:44:28;;;;;;;3.53;1.52;;;18.40;62.10;;;;;;6280602;22;20628;-82
2022/01/28 00:46:54;;;;;;;5.00;1.35;;;18.40;62.00;;;;;;6280401;22;20136;-82
2022/01/28 00:49:20;;;;;;;4.50;1.30;;;18.40;62.10;;;;;;6280589;22;20567;-82
2022/01/28 00:51:46;;;;;;;2.60;1.17;;;18.40;62.10;;;;;;6229488;22;20597;-82
2022/01/28 00:54:11;;;;;;;4.50;1.17;;;18.30;61.60;;;;;;6307774;22;20131;-82
2022/01/28 00:56:37;;;;;;;4.60;1.40;;;18.30;61.90;;;;;;6255061;22;20125;-82
2022/01/28 00:59:03;;;;;;;5.80;1.17;;;18.30;62.10;;;;;;6279550;22;20215;-82
2022/01/28 01:01:29;;;;;;;4.85;1.35;;;18.30;62.20;;;;;;6308155;22;20132;-83
2022/01/28 01:03:57;;;;;;;6.03;1.20;;;18.30;62.10;;;;;;6254739;22;20136;-82
2022/01/28 01:06:23;;;;;;;6.53;1.20;;;18.30;61.90;;;;;;6280509;22;20200;-82
2022/01/28 01:08:49;;;;;;;3.92;1.20;;;18.30;62.00;;;;;;6280381;22;20160;-82
2022/01/28 01:11:17;;;;;;;4.95;1.35;;;18.30;62.10;;;;;;6307699;22;20440;-82
2022/01/28 01:13:43;;;;;;;5.85;1.63;;;18.30;62.00;;;;;;6280914;22;20132;-82
2022/01/28 01:16:12;;;;;;;5.47;1.60;;;18.30;62.10;;;;;;6280453;22;20207;-82
2022/01/28 01:18:48;;;;;;;5.18;1.30;;;18.30;61.90;;;;;;6256520;22;20170;-82
2022/01/28 01:21:21;;;;;;;3.53;1.20;;;18.30;62.20;;;;;;6233822;22;20182;-82
2022/01/28 01:23:53;;;;;;;3.65;1.33;;;18.20;62.20;;;;;;6256009;22;20157;-82
2022/01/28 01:26:21;;;;;;;2.45;1.20;;;18.20;62.30;;;;;;6281710;22;20124;-82
2022/01/28 01:28:47;;;;;;;4.57;1.30;;;18.30;62.10;;;;;;6280693;22;20132;-82
2022/01/28 01:31:16;;;;;;;1.88;0.95;;;18.30;62.00;;;;;;6230420;22;20144;-82
2022/01/28 01:33:52;;;;;;;3.53;1.05;;;18.30;61.90;;;;;;6307558;22;20129;-82
2022/01/28 01:36:18;;;;;;;6.50;1.13;;;18.20;62.00;;;;;;6233720;22;20470;-82
2022/01/28 01:38:45;;;;;;;3.30;1.27;;;18.20;62.00;;;;;;6254973;22;20227;-82
2022/01/28 01:41:18;;;;;;;3.15;1.20;;;18.20;62.00;;;;;;6228406;22;20579;-82
2022/01/28 01:46:44;;;;;;;5.22;1.35;;;18.20;61.80;;;;;;6238738;22;20193;-83
2022/01/28 01:54:33;;;;;;;4.03;1.27;;;18.20;61.60;;;;;;6259778;22;20152;-82
2022/01/28 01:57:00;;;;;;;2.35;1.08;;;18.20;61.50;;;;;;6229792;22;20152;-83
2022/01/28 01:59:27;;;;;;;3.08;1.13;;;18.20;61.90;;;;;;6228260;22;20196;-82
2022/01/28 02:01:53;;;;;;;2.28;1.05;;;18.20;62.00;;;;;;6203153;22;20152;-82
2022/01/28 02:04:19;;;;;;;4.88;1.30;;;18.20;62.00;;;;;;6279995;22;20607;-82
2022/01/28 02:06:45;;;;;;;3.15;1.20;;;18.20;61.90;;;;;;6229337;22;20273;-82
2022/01/28 02:09:10;;;;;;;4.75;1.40;;;18.20;61.90;;;;;;6229128;22;20151;-82
2022/01/28 02:11:37;;;;;;;3.13;1.10;;;18.20;61.90;;;;;;6231194;22;20483;-82
2022/01/28 02:14:03;;;;;;;3.03;1.02;;;18.20;61.70;;;;;;6256792;22;20149;-82
2022/01/28 02:16:28;;;;;;;2.97;1.10;;;18.20;61.90;;;;;;6231020;22;20144;-83
2022/01/28 02:18:55;;;;;;;2.53;1.15;;;18.20;61.90;;;;;;6231450;22;20151;-82
2022/01/28 02:21:21;;;;;;;3.60;1.15;;;18.20;61.70;;;;;;6231588;22;20482;-82
2022/01/28 02:23:52;;;;;;;7.45;1.40;;;18.20;61.90;;;;;;6281985;22;20125;-82
2022/01/28 02:26:17;;;;;;;3.33;1.30;;;18.20;62.00;;;;;;6258729;22;20128;-82
2022/01/28 02:28:46;;;;;;;2.30;1.05;;;18.20;61.60;;;;;;6256278;22;20219;-82
2022/01/28 02:31:13;;;;;;;2.55;1.20;;;18.20;61.80;;;;;;6257425;22;20131;-82
2022/01/28 02:33:38;;;;;;;4.07;1.15;;;18.10;61.90;;;;;;6231052;22;20136;-82
2022/01/28 02:36:06;;;;;;;3.67;1.20;;;18.20;61.90;;;;;;6282028;22;20136;-82
2022/01/28 02:38:33;;;;;;;5.35;1.30;;;18.20;61.80;;;;;;6257199;22;20139;-82
2022/01/28 02:41:01;;;;;;;4.13;1.20;;;18.20;61.50;;;;;;6256481;22;20136;-82
2022/01/28 02:43:40;;;;;;;3.42;1.23;;;18.20;61.50;;;;;;6282127;22;20132;-83
2022/01/28 02:46:13;;;;;;;4.85;1.30;;;18.20;61.90;;;;;;6259495;22;20178;-82
2022/01/28 02:48:42;;;;;;;2.50;0.95;;;18.10;61.70;;;;;;6282965;22;20121;-82
2022/01/28 02:51:18;;;;;;;3.42;1.00;;;18.10;61.70;;;;;;6256692;22;20456;-83
2022/01/28 02:53:50;;;;;;;4.05;1.40;;;18.10;61.80;;;;;;6258278;22;20222;-82
2022/01/28 02:56:21;;;;;;;3.47;1.30;;;18.10;61.50;;;;;;6257028;22;20517;-82
2022/01/28 02:58:47;;;;;;;2.78;1.02;;;18.10;61.80;;;;;;6218938;23;20257;-82
2022/01/28 03:01:15;;;;;;;2.60;1.00;;;18.10;61.60;;;;;;6199741;23;20215;-82
2022/01/28 03:03:44;;;;;;;4.35;1.27;;;18.10;61.70;;;;;;6199792;23;20152;-82
2022/01/28 03:06:10;;;;;;;3.05;1.40;;;18.10;61.40;;;;;;6200136;23;20164;-82
2022/01/28 03:08:36;;;;;;;2.97;1.10;;;18.10;61.50;;;;;;6225160;23;20129;-81
2022/01/28 03:16:24;;;;;;;1.83;1.10;;;18.10;61.50;;;;;;6212256;23;20132;-84
2022/01/28 03:18:54;;;;;;;3.50;1.25;;;18.10;60.90;;;;;;6199820;23;20128;-82
2022/01/28 03:24:08;;;;;;;2.80;1.15;;;18.10;61.40;;;;;;6166341;23;20176;-82
2022/01/28 03:26:34;;;;;;;3.13;1.38;;;18.10;61.40;;;;;;6175955;23;20148;-82
2022/01/28 03:28:59;;;;;;;4.40;1.25;;;18.10;61.00;;;;;;6174217;23;20144;-82
2022/01/28 03:31:25;;;;;;;2.17;0.90;;;18.20;61.50;;;;;;6199629;23;20183;-82
2022/01/28 03:33:51;;;;;;;2.80;1.08;;;18.10;61.00;;;;;;6175457;23;20168;-82
2022/01/28 03:36:16;;;;;;;3.45;1.10;;;18.10;61.10;;;;;;6199828;23;20198;-82
2022/01/28 03:38:42;;;;;;;2.85;1.08;;;18.10;60.90;;;;;;6174390;23;20525;-81
2022/01/28 03:41:15;;;;;;;1.92;1.10;;;18.10;61.10;;;;;;6174088;23;20148;-82
2022/01/28 03:43:41;;;;;;;3.22;1.25;;;18.10;61.00;;;;;;6175985;23;20491;-82
2022/01/28 03:46:06;;;;;;;4.45;1.05;;;18.10;61.30;;;;;;6174571;23;20176;-81
2022/01/28 03:48:32;;;;;;;2.47;1.20;;;18.10;61.40;;;;;;6175146;23;20282;-82
2022/01/28 03:50:58;;;;;;;2.63;0.90;;;18.10;61.40;;;;;;6199672;23;20133;-81
2022/01/28 03:53:23;;;;;;;2.38;1.40;;;18.00;61.30;;;;;;6224669;23;20137;-82
2022/01/28 03:55:52;;;;;;;2.90;1.10;;;18.10;61.30;;;;;;6199500;23;20144;-81
2022/01/28 03:58:18;;;;;;;5.43;1.48;;;18.10;61.10;;;;;;6221249;22;20627;-81
2022/01/28 04:00:45;;;;;;;2.33;1.02;;;18.10;60.90;;;;;;6224064;23;20132;-82
2022/01/28 04:11:27;;;;;;;4.20;1.80;;;18.10;61.40;;;;;;6144338;23;20188;-82
2022/01/28 04:11:31;;;;;;;2.75;1.27;;;18.10;61.20;;;;;;6169133;23;20155;-82
2022/01/28 04:14:08;;;;;;;2.97;1.00;;;18.10;60.70;;;;;;6148116;23;20534;-81
2022/01/28 04:19:16;;;;;;;2.67;0.90;;;18.10;60.90;;;;;;6167639;23;20156;-82
2022/01/28 04:21:44;;;;;;;2.63;1.00;;;18.10;60.30;;;;;;6223868;23;20160;-82
2022/01/28 04:24:12;;;;;;;1.70;0.90;;;18.10;60.60;;;;;;6124061;23;20184;-82
2022/01/28 04:26:40;;;;;;;4.35;1.02;;;18.10;60.90;;;;;;6173198;23;20194;-82
2022/01/28 04:29:08;;;;;;;3.17;0.95;;;18.20;60.50;;;;;;6173713;23;20475;-82
2022/01/28 04:31:41;;;;;;;2.53;1.05;;;18.10;60.90;;;;;;6123995;23;20618;-82
2022/01/28 04:34:07;;;;;;;3.58;1.15;;;18.10;61.10;;;;;;6150986;23;20159;-82
2022/01/28 04:36:37;;;;;;;6.63;1.20;;;18.10;60.90;;;;;;6174238;23;20442;-81
2022/01/28 04:39:13;;;;;;;4.30;1.27;;;18.10;60.60;;;;;;6196100;23;20125;-81
2022/01/28 04:41:54;;;;;;;2.22;1.00;;;18.10;60.80;;;;;;6178818;23;20176;-82
2022/01/28 04:44:28;;;;;;;2.03;1.15;;;18.10;61.00;;;;;;6201913;23;20183;-82
2022/01/28 04:47:03;;;;;;;2.35;1.05;;;18.00;60.70;;;;;;6177053;23;20147;-81
2022/01/28 04:49:46;;;;;;;2.70;1.10;;;18.10;60.30;;;;;;6200269;23;20139;-82
2022/01/28 04:55:13;;;;;;;2.38;1.00;;;18.10;60.60;;;;;;6193345;23;20217;-81
2022/01/28 04:57:52;;;;;;;3.05;1.00;;;18.10;60.60;;;;;;6122526;23;20148;-82
2022/01/28 05:06:10;;;;;;;1.85;0.90;;;18.10;60.30;;;;;;6283592;22;20250;-81
2022/01/28 05:11:36;;;;;;;2.65;1.00;;;18.10;60.30;;;;;;6263363;22;20136;-81
2022/01/28 05:14:27;;;;;;;2.80;1.05;;;18.00;60.50;;;;;;6263171;22;20289;-81
2022/01/28 05:17:02;;;;;;;3.33;1.15;;;18.00;60.20;;;;;;6262816;22;20673;-83
2022/01/28 05:25:36;;;;;;;2.78;1.15;;;18.00;60.00;;;;;;6308073;22;20168;-82
2022/01/28 05:27:40;;;;;;;1.23;0.82;;;18.10;59.50;;;;;;6262985;22;20460;-82
2022/01/28 05:30:06;;;;;;;3.05;0.90;;;18.10;58.90;;;;;;6307587;22;20132;-82
2022/01/28 05:32:32;;;;;;;2.53;1.02;;;18.20;59.30;;;;;;6254706;22;20609;-82
2022/01/28 05:34:57;;;;;;;2.92;1.13;;;18.20;59.60;;;;;;6229171;22;20223;-82
2022/01/28 05:37:24;;;;;;;2.67;1.10;;;18.10;59.20;;;;;;6280302;22;20133;-84
2022/01/28 05:39:50;;;;;;;1.98;0.93;;;18.20;59.30;;;;;;6280254;22;20223;-82
2022/01/28 05:42:16;;;;;;;1.73;1.00;;;18.20;59.30;;;;;;6307391;22;20504;-82
2022/01/28 05:44:41;;;;;;;2.40;1.10;;;18.20;59.00;;;;;;6254712;22;20183;-82
2022/01/28 05:47:13;;;;;;;3.03;0.98;;;18.20;59.30;;;;;;6256480;22;20148;-82
2022/01/28 05:49:39;;;;;;;2.20;0.73;;;18.30;59.30;;;;;;6283678;22;20124;-82
2022/01/28 05:52:04;;;;;;;2.22;0.90;;;18.20;58.80;;;;;;6256817;22;20177;-82
2022/01/28 05:54:30;;;;;;;1.80;1.02;;;18.30;59.00;;;;;;6256395;22;20140;-82
2022/01/28 05:56:56;;;;;;;2.30;1.02;;;18.20;58.60;;;;;;6256666;22;20559;-82
2022/01/28 05:59:21;;;;;;;1.23;0.80;;;18.30;59.00;;;;;;6256386;22;20219;-82
2022/01/28 06:01:47;;;;;;;2.45;1.23;;;18.30;58.70;;;;;;6282171;22;20132;-82
2022/01/28 06:04:13;;;;;;;2.20;1.00;;;18.30;58.80;;;;;;6231144;22;20167;-82
2022/01/28 06:06:38;;;;;;;3.08;0.82;;;18.30;58.50;;;;;;6231067;22;20185;-82
2022/01/28 06:09:04;;;;;;;2.53;0.95;;;18.30;58.10;;;;;;6256379;22;20139;-82
2022/01/28 06:11:29;;;;;;;2.42;0.73;;;18.30;58.50;;;;;;6281960;22;20129;-82
2022/01/28 06:13:55;;;;;;;1.13;0.80;;;18.40;58.70;;;;;;6282062;22;20124;-82
2022/01/28 06:16:21;;;;;;;1.92;0.80;;;18.30;58.40;;;;;;6256336;22;20246;-82
2022/01/28 06:18:46;;;;;;;2.80;0.80;;;18.40;57.90;;;;;;6256375;22;20167;-82
2022/01/28 06:21:12;;;;;;;1.63;0.88;;;18.40;58.60;;;;;;6281953;22;20132;-82
2022/01/28 06:23:38;;;;;;;1.58;0.73;;;18.40;57.90;;;;;;6309354;22;20125;-82
2022/01/28 06:26:03;;;;;;;2.08;0.95;;;18.40;58.00;;;;;;6309277;22;20160;-82
2022/01/28 06:28:29;;;;;;;1.60;0.90;;;18.40;58.20;;;;;;6256409;22;20132;-82
2022/01/28 06:30:55;;;;;;;1.90;1.00;;;18.40;57.90;;;;;;6309074;22;20132;-82
2022/01/28 06:33:21;;;;;;;1.77;0.82;;;18.40;57.80;;;;;;6281801;22;20182;-82
2022/01/28 06:35:46;;;;;;;2.53;0.80;;;18.40;57.90;;;;;;6256854;22;20211;-82
2022/01/28 06:38:12;;;;;;;0.93;0.80;;;18.40;57.90;;;;;;6230714;22;20136;-82
2022/01/28 06:40:38;;;;;;;2.13;0.77;;;18.40;58.10;;;;;;6230884;22;20230;-83
2022/01/28 06:43:03;;;;;;;2.15;0.65;;;18.40;57.50;;;;;;6281868;22;20133;-82
2022/01/28 06:45:29;;;;;;;2.08;0.80;;;18.40;57.80;;;;;;6281450;22;20472;-83
2022/01/28 06:47:55;;;;;;;2.53;0.75;;;18.40;58.00;;;;;;6281602;22;20178;-83
2022/01/28 06:50:20;;;;;;;1.42;0.70;;;18.50;57.80;;;;;;6256470;22;20128;-82
2022/01/28 06:52:46;;;;;;;1.30;1.02;;;18.40;57.90;;;;;;6308781;22;20190;-82
2022/01/28 06:55:12;;;;;;;2.58;0.85;;;18.50;57.80;;;;;;6256073;22;20223;-82
2022/01/28 06:57:38;;;;;;;1.40;0.90;;;18.40;57.50;;;;;;6230213;22;20193;-82
2022/01/28 07:00:05;;;;;;;2.35;0.80;;;18.50;57.90;;;;;;6227128;22;20191;-83
2022/01/28 07:02:31;;;;;;;1.02;0.65;;;18.40;57.80;;;;;;6225157;23;20192;-82
2022/01/28 07:04:58;;;;;;;2.75;0.70;;;18.50;57.80;;;;;;6225129;23;20626;-82
2022/01/28 07:07:25;;;;;;;1.80;0.70;;;18.50;57.60;;;;;;6200498;23;20226;-82
2022/01/28 07:09:51;;;;;;;1.20;0.63;;;18.40;57.50;;;;;;6198648;23;20135;-82
2022/01/28 07:12:17;;;;;;;0.85;0.60;;;18.50;57.60;;;;;;6224883;23;20568;-82
2022/01/28 07:14:43;;;;;;;2.10;0.88;;;18.50;57.40;;;;;;6199294;23;20140;-83
2022/01/28 07:17:09;;;;;;;2.05;0.77;;;18.50;57.60;;;;;;6199755;23;20143;-82
2022/01/28 07:19:35;;;;;;;1.27;0.70;;;18.50;57.50;;;;;;6224838;23;20560;-83
2022/01/28 07:22:01;;;;;;;1.27;0.75;;;18.50;57.60;;;;;;6199430;23;20133;-82
2022/01/28 07:24:27;;;;;;;1.23;0.63;;;18.50;57.60;;;;;;6199395;23;20184;-82
2022/01/28 07:26:53;;;;;;;1.42;0.70;;;18.50;57.80;;;;;;6122861;23;20140;-84
2022/01/28 07:29:19;;;;;;;0.95;0.57;;;18.50;57.90;;;;;;6199374;23;20483;-82
2022/01/28 07:31:45;;;;;;;1.92;0.95;;;18.50;57.40;;;;;;6199444;23;20232;-82
2022/01/28 07:34:11;;;;;;;4.95;1.10;;;18.50;57.50;;;;;;6200110;23;20206;-83
2022/01/28 07:36:37;;;;;;;6.97;1.27;;;18.50;57.30;;;;;;6225001;23;20572;-82
2022/01/28 07:39:03;;;;;;;7.22;1.08;;;18.50;57.10;;;;;;6199347;23;20194;-83
2022/01/28 07:41:29;;;;;;;5.45;1.45;;;18.50;57.20;;;;;;6174322;23;20144;-81
2022/01/28 07:43:54;;;;;;;6.88;1.20;;;18.50;57.50;;;;;;6225971;23;20133;-80
2022/01/28 07:46:20;;;;;;;12.45;1.60;;;18.50;57.50;;;;;;6199763;23;20250;-81
2022/01/28 07:48:46;;;;;;;10.02;0.95;;;18.50;57.50;;;;;;6201448;23;20175;-81
2022/01/28 07:51:11;;;;;;;12.00;1.30;;;18.50;57.50;;;;;;6225139;23;20132;-82
2022/01/28 07:53:37;;;;;;;7.00;1.20;;;18.50;57.60;;;;;;6224590;23;20137;-80
2022/01/28 07:56:03;;;;;;;4.20;1.00;;;18.50;57.90;;;;;;6224315;23;20149;-80
2022/01/28 07:58:28;;;;;;;3.47;0.93;;;18.50;57.60;;;;;;6178147;23;20290;-82
2022/01/28 08:00:54;;;;;;;3.28;0.85;;;18.50;58.20;;;;;;6225168;23;20195;-81
2022/01/28 08:03:20;;;;;;;4.95;1.00;;;18.60;57.50;;;;;;6122713;23;20631;-81
2022/01/28 08:05:45;;;;;;;8.68;1.20;;;18.50;57.30;;;;;;6201096;23;20190;-80
2022/01/28 08:08:13;;;;;;;5.03;0.95;;;18.40;57.90;;;;;;6122556;23;20212;-83
2022/01/28 08:10:38;;;;;;;6.45;1.75;;;18.60;57.50;;;;;;6174673;23;20136;-82
2022/01/28 08:13:14;;;;;;;2.20;0.88;;;18.50;57.50;;;;;;6224283;23;20508;-80
2022/01/28 08:15:40;;;;;;;5.03;1.00;;;18.50;57.20;;;;;;6148269;23;20155;-80
2022/01/28 08:18:06;;;;;;;3.00;1.00;;;18.50;57.00;;;;;;6122401;23;20143;-81
2022/01/28 08:20:35;;;;;;;2.15;1.00;;;18.60;57.10;;;;;;6199205;23;20136;-82
2022/01/28 08:23:03;;;;;;;3.60;1.20;;;18.60;57.30;;;;;;6173008;23;20152;-82
2022/01/28 08:25:31;;;;;;;2.85;1.00;;;18.50;57.40;;;;;;6198556;23;20179;-80
2022/01/28 08:27:57;;;;;;;4.38;0.85;;;18.50;57.50;;;;;;6223402;23;20163;-82
2022/01/28 08:30:24;;;;;;;4.72;0.95;;;18.50;57.10;;;;;;6199035;23;20141;-80
2022/01/28 08:32:50;;;;;;;6.47;1.08;;;18.60;57.40;;;;;;6223928;23;20132;-80
2022/01/28 08:35:17;;;;;;;4.18;0.85;;;18.60;57.30;;;;;;6224486;23;20554;-82
2022/01/28 08:37:44;;;;;;;2.42;0.88;;;18.60;56.60;;;;;;6224237;23;20139;-80
2022/01/28 08:40:11;;;;;;;2.92;0.90;;;18.60;57.30;;;;;;6198433;23;20189;-80
2022/01/28 08:42:37;;;;;;;3.78;0.90;;;18.60;57.30;;;;;;6174190;23;20163;-81
2022/01/28 08:45:04;;;;;;;4.28;1.05;;;18.60;57.30;;;;;;6174269;23;20184;-81
2022/01/28 08:47:30;;;;;;;2.90;0.80;;;18.60;57.30;;;;;;6198922;23;20209;-82
2022/01/28 08:49:55;;;;;;;2.83;0.80;;;18.60;57.20;;;;;;6199258;23;20568;-80
2022/01/28 08:52:21;;;;;;;4.70;1.05;;;18.60;57.10;;;;;;6223632;23;20132;-81
2022/01/28 08:54:46;;;;;;;4.93;1.10;;;18.60;57.30;;;;;;6198494;23;20148;-82
2022/01/28 08:57:12;;;;;;;4.10;0.90;;;18.60;57.00;;;;;;6173638;23;20160;-81
2022/01/28 08:59:40;;;;;;;2.47;0.98;;;18.60;57.60;;;;;;6196976;23;20203;-81
2022/01/28 09:02:07;;;;;;;5.57;0.93;;;18.60;57.90;;;;;;6195296;23;20213;-82
2022/01/28 09:04:33;;;;;;;4.18;0.80;;;18.60;57.60;;;;;;6222840;23;20537;-82
2022/01/28 09:06:59;;;;;;;3.42;1.00;;;18.60;58.40;;;;;;6222999;23;20164;-82
2022/01/28 09:09:25;;;;;;;2.28;1.00;;;18.50;57.60;;;;;;6223855;23;20188;-82
2022/01/28 09:12:06;;;;;;;3.08;0.90;;;18.50;57.50;;;;;;6122386;23;20139;-81
2022/01/28 09:14:32;;;;;;;4.28;0.90;;;18.60;57.60;;;;;;6203137;23;20156;-81
2022/01/28 09:16:58;;;;;;;1.55;0.75;;;18.50;57.20;;;;;;6174036;23;20524;-82
2022/01/28 09:19:24;;;;;;;2.47;0.80;;;18.50;57.30;;;;;;6222808;23;20568;-85
2022/01/28 09:21:50;;;;;;;2.85;0.65;;;18.50;57.20;;;;;;6199032;23;20190;-81
2022/01/28 09:24:17;;;;;;;3.22;0.70;;;18.50;54.20;;;;;;6198252;23;20144;-81
2022/01/28 09:26:43;;;;;;;2.38;0.80;;;18.60;56.00;;;;;;6198550;23;20151;-81
2022/01/28 09:29:08;;;;;;;1.48;1.00;;;18.60;55.80;;;;;;6223831;23;20136;-81
2022/01/28 09:31:34;;;;;;;3.58;0.77;;;18.70;56.00;;;;;;6198915;23;20149;-81
2022/01/28 09:34:00;;;;;;;1.85;0.80;;;18.60;56.00;;;;;;6199184;23;20143;-82
2022/01/28 09:36:26;;;;;;;3.55;0.70;;;18.70;56.00;;;;;;6198684;23;20159;-81
2022/01/28 09:38:52;;;;;;;1.20;0.80;;;18.70;56.20;;;;;;6121886;23;20147;-81
2022/01/28 09:41:17;;;;;;;2.50;0.60;;;18.70;56.00;;;;;;6173706;23;20235;-81
2022/01/28 09:43:43;;;;;;;1.77;0.70;;;18.70;55.80;;;;;;6173651;23;20163;-82
2022/01/28 09:46:09;;;;;;;2.92;0.75;;;18.80;55.00;;;;;;6198110;23;20603;-81
2022/01/28 09:48:35;;;;;;;2.97;0.73;;;18.80;57.20;;;;;;6173174;23;20233;-81
2022/01/28 09:51:02;;;;;;;2.33;0.80;;;18.70;56.90;;;;;;6174054;23;20476;-81
2022/01/28 09:53:27;;;;;;;2.05;0.90;;;18.70;57.10;;;;;;6173810;23;20156;-81
2022/01/28 09:55:53;;;;;;;1.55;0.80;;;18.70;57.10;;;;;;6198217;23;20210;-82
2022/01/28 09:58:19;;;;;;;1.05;0.63;;;18.80;56.70;;;;;;6198050;23;20192;-81
2022/01/28 10:00:45;;;;;;;2.65;0.95;;;18.80;55.80;;;;;;6223453;23;20187;-81
2022/01/28 10:03:12;;;;;;;2.22;0.90;;;18.80;56.60;;;;;;6223328;23;20164;-81
2022/01/28 10:05:42;;;;;;;3.47;1.00;;;18.80;56.70;;;;;;6198426;23;20180;-81
2022/01/28 10:08:14;;;;;;;0.88;0.68;;;18.80;56.20;;;;;;6198798;23;20162;-81
2022/01/28 10:10:44;;;;;;;1.67;0.80;;;18.80;56.80;;;;;;6224937;23;20631;-81
2022/01/28 10:13:14;;;;;;;3.10;0.90;;;18.80;56.60;;;;;;6224969;23;20168;-82
2022/01/28 10:16:00;;;;;;;3.10;0.90;;;18.80;57.30;;;;;;6198298;23;20243;-81
2022/01/28 10:18:47;;;;;;;2.65;1.00;;;18.80;56.70;;;;;;6121897;23;20137;-80
2022/01/28 10:21:20;;;;;;;2.15;0.80;;;18.80;56.90;;;;;;6121384;23;20132;-81
2022/01/28 10:24:15;;;;;;;1.92;0.90;;;18.80;57.00;;;;;;6173607;23;20149;-80
2022/01/28 10:26:47;;;;;;;1.13;0.70;;;18.80;56.90;;;;;;6223589;23;20167;-80
2022/01/28 10:29:19;;;;;;;1.73;0.68;;;18.90;56.70;;;;;;6223230;23;20495;-80
2022/01/28 10:31:48;;;;;;;1.00;0.57;;;18.90;56.30;;;;;;6122111;23;20141;-81
2022/01/28 10:34:18;;;;;;;1.33;0.80;;;18.80;56.60;;;;;;6200509;23;20191;-81
2022/01/28 10:36:46;;;;;;;1.35;0.60;;;18.90;56.30;;;;;;6123119;23;20137;-81
2022/01/28 10:39:14;;;;;;;1.55;0.80;;;19.00;55.90;;;;;;6199681;23;20175;-81
2022/01/28 10:41:49;;;;;;;2.33;0.70;;;18.90;56.40;;;;;;6225114;23;20192;-80
2022/01/28 10:44:16;;;;;;;2.13;0.80;;;19.00;54.80;;;;;;6224560;23;20610;-81
2022/01/28 10:46:44;;;;;;;1.60;0.88;;;19.00;54.70;;;;;;6199924;23;20198;-80
2022/01/28 10:49:10;;;;;;;1.20;0.75;;;19.10;55.30;;;;;;6200139;23;20144;-80
2022/01/28 10:51:48;;;;;;;1.05;0.80;;;19.10;55.60;;;;;;6224998;23;20148;-81
2022/01/28 10:54:21;;;;;;;1.15;0.73;;;19.00;55.40;;;;;;6173044;23;20214;-81
2022/01/28 10:56:53;;;;;;;0.75;0.60;;;19.10;56.00;;;;;;6173689;23;20160;-83
2022/01/28 10:59:20;;;;;;;2.58;0.73;;;19.10;55.20;;;;;;6161610;23;20724;-81
2022/01/28 11:01:47;;;;;;;0.93;0.60;;;19.00;56.00;;;;;;6224767;23;20155;-81
2022/01/28 11:04:14;;;;;;;1.33;0.60;;;19.00;56.10;;;;;;6198469;23;20152;-81
2022/01/28 11:06:42;;;;;;;1.35;0.80;;;19.00;56.40;;;;;;6224398;23;20171;-81
2022/01/28 11:09:11;;;;;;;1.10;0.70;;;18.90;56.50;;;;;;6198758;23;20160;-81
2022/01/28 11:11:39;;;;;;;1.20;0.98;;;18.90;56.90;;;;;;6199453;23;20152;-81
2022/01/28 11:14:06;;;;;;;1.05;0.70;;;19.00;56.30;;;;;;6223358;23;20236;-81
2022/01/28 11:16:34;;;;;;;2.15;0.75;;;19.00;56.10;;;;;;6173692;23;20159;-81
2022/01/28 11:19:01;;;;;;;2.60;0.75;;;19.00;56.80;;;;;;6198917;23;20239;-81
2022/01/28 11:22:01;;;;;;;1.50;0.93;;;18.90;55.90;;;;;;6223253;23;20241;-82
2022/01/28 11:24:43;;;;;;;1.88;0.70;;;19.00;56.00;;;;;;6198387;23;20187;-81
2022/01/28 11:27:29;;;;;;;1.77;0.80;;;19.00;56.20;;;;;;6224648;23;20469;-81
2022/01/28 11:30:18;;;;;;;1.23;0.70;;;19.00;57.20;;;;;;6201354;23;20645;-82
2022/01/28 11:33:02;;;;;;;1.17;0.80;;;18.90;56.90;;;;;;6172855;23;20490;-81
2022/01/28 11:35:34;;;;;;;1.10;0.70;;;18.90;56.40;;;;;;6225076;23;20179;-81
2022/01/28 11:38:04;;;;;;;0.93;0.60;;;18.90;56.80;;;;;;6198422;23;20156;-80
2022/01/28 11:40:51;;;;;;;1.77;0.77;;;18.90;57.20;;;;;;6174990;23;20183;-81
2022/01/28 11:43:23;;;;;;;1.60;0.50;;;18.90;56.90;;;;;;6224013;23;20152;-81
2022/01/28 11:46:06;;;;;;;1.02;0.40;;;18.90;55.70;;;;;;6222328;23;20320;-80
2022/01/28 11:49:12;;;;;;;1.85;0.70;;;18.90;57.00;;;;;;6198969;23;20176;-81
2022/01/28 11:51:41;;;;;;;2.05;0.90;;;18.90;57.10;;;;;;6198338;23;20151;-80
2022/01/28 11:54:10;;;;;;;1.50;0.70;;;18.90;57.00;;;;;;6249781;22;20144;-81
2022/01/28 11:56:38;;;;;;;1.33;0.80;;;18.90;56.40;;;;;;6124513;23;20136;-81
2022/01/28 11:59:07;;;;;;;0.90;0.70;;;19.00;56.50;;;;;;6242035;22;20198;-81
2022/01/28 12:02:10;;;;;;;0.80;0.70;;;19.00;56.60;;;;;;6124955;23;20156;-80
2022/01/28 12:04:37;;;;;;;1.17;0.77;;;19.00;55.40;;;;;;6194713;23;20484;-81
2022/01/28 12:07:08;;;;;;;1.58;0.70;;;19.00;55.70;;;;;;6124229;23;20132;-81
2022/01/28 12:09:35;;;;;;;1.17;0.60;;;19.00;56.10;;;;;;6199799;23;20139;-81
2022/01/28 12:12:02;;;;;;;1.02;0.70;;;18.90;55.70;;;;;;6124548;23;20140;-81
2022/01/28 12:15:03;;;;;;;2.25;0.70;;;18.90;56.70;;;;;;6200875;23;20526;-82
2022/01/28 12:17:39;;;;;;;0.90;0.60;;;19.00;54.80;;;;;;6122333;23;20443;-81
2022/01/28 12:20:22;;;;;;;0.82;0.60;;;19.00;54.90;;;;;;6224151;23;20136;-81
2022/01/28 12:23:28;;;;;;;0.80;0.60;;;19.00;54.90;;;;;;6199442;23;20152;-81
2022/01/28 12:25:58;;;;;;;1.33;0.63;;;19.10;55.60;;;;;;6226662;23;20510;-80
2022/01/28 12:28:41;;;;;;;1.50;0.77;;;19.00;55.20;;;;;;6214592;23;20186;-81
2022/01/28 12:31:12;;;;;;;0.60;0.57;;;19.10;56.20;;;;;;6188661;23;20138;-81
2022/01/28 12:33:42;;;;;;;1.33;0.75;;;19.00;54.80;;;;;;6213398;23;20154;-81
2022/01/28 12:36:09;;;;;;;0.70;0.43;;;19.10;55.60;;;;;;6115599;23;20157;-81
2022/01/28 12:38:42;;;;;;;0.50;0.50;;;19.00;55.10;;;;;;6164120;23;20146;-82
2022/01/28 12:41:09;;;;;;;0.70;0.60;;;19.00;55.60;;;;;;6189138;23;20268;-81
2022/01/28 12:43:37;;;;;;;1.17;0.57;;;19.00;55.70;;;;;;6188429;23;20610;-81
2022/01/28 12:46:07;;;;;;;0.95;0.50;;;19.00;55.20;;;;;;6163339;23;20641;-81
2022/01/28 12:48:33;;;;;;;1.17;0.55;;;19.00;55.30;;;;;;6163527;23;20150;-81
2022/01/28 12:50:59;;;;;;;1.00;0.70;;;19.00;55.00;;;;;;6163679;23;20165;-81
2022/01/28 12:53:28;;;;;;;0.95;0.60;;;19.00;55.80;;;;;;6163874;23;20200;-81
2022/01/28 12:55:54;;;;;;;1.05;0.52;;;19.00;54.40;;;;;;6163509;23;20611;-82
2022/01/28 12:58:30;;;;;;;1.15;0.70;;;19.00;54.00;;;;;;6182456;23;20709;-80
2022/01/28 13:01:05;;;;;;;0.82;0.45;;;19.10;55.50;;;;;;6199493;23;20182;-81
2022/01/28 13:03:37;;;;;;;1.92;0.60;;;19.10;54.70;;;;;;6223415;23;20155;-80
2022/01/28 13:08:34;;;;;;;;;;;;;;;;;;;;;
2022/01/28 13:09:47;;;;;;;0.70;0.60;;;19.00;55.10;;;;;;6109729;22;20596;-81
2022/01/28 13:12:42;;;;;;;0.70;0.40;;;19.00;55.60;;;;;;6197762;22;20152;-80
2022/01/28 13:15:15;;;;;;;1.15;0.55;;;19.00;53.60;;;;;;6225771;22;20584;-81
2022/01/28 13:17:53;;;;;;;0.80;0.60;;;19.00;54.60;;;;;;6158576;23;20155;-82
2022/01/28 13:20:19;;;;;;;3.33;0.70;;;19.10;54.30;;;;;;6111619;23;20287;-81
2022/01/28 13:22:50;;;;;;;1.30;0.60;;;19.10;55.00;;;;;;6159361;23;20230;-81
2022/01/28 13:25:20;;;;;;;0.75;0.45;;;19.00;54.80;;;;;;6160838;23;20693;-81
2022/01/28 13:27:48;;;;;;;0.88;0.60;;;19.00;54.50;;;;;;6184193;23;20151;-81
2022/01/28 13:30:15;;;;;;;0.50;0.50;;;19.00;55.90;;;;;;6159002;23;20247;-81
2022/01/28 13:32:47;;;;;;;1.00;0.70;;;19.10;54.70;;;;;;6183172;23;20227;-81
2022/01/28 13:35:16;;;;;;;0.88;0.55;;;19.00;55.40;;;;;;6133866;23;20159;-81
2022/01/28 13:37:49;;;;;;;1.55;0.50;;;19.10;54.50;;;;;;6184017;23;20238;-82
2022/01/28 13:40:37;;;;;;;1.80;0.80;;;19.00;53.50;;;;;;6158926;23;20606;-82
2022/01/28 13:43:07;;;;;;;0.82;0.40;;;19.00;54.20;;;;;;6183906;23;20620;-82
2022/01/28 13:45:39;;;;;;;1.25;0.60;;;19.00;54.50;;;;;;6157728;23;20183;-82
2022/01/28 13:48:12;;;;;;;0.95;0.47;;;19.10;54.90;;;;;;6177876;23;20198;-81
2022/01/28 13:50:41;;;;;;;0.52;0.40;;;19.00;55.00;;;;;;6222385;23;20141;-82
2022/01/28 13:53:34;;;;;;;0.77;0.50;;;19.00;54.50;;;;;;6246850;22;20132;-82
2022/01/28 13:56:09;;;;;;;0.60;0.50;;;19.00;54.30;;;;;;6228446;22;20190;-81
2022/01/28 13:58:51;;;;;;;0.60;0.50;;;19.00;55.00;;;;;;6220121;22;20241;-82
2022/01/28 14:01:18;;;;;;;0.90;0.60;;;19.00;55.10;;;;;;6224093;23;20147;-81